createdAt,value
2023-03-10T00:02:22.281Z,8.01
2023-03-10T00:06:25.966Z,8.11
2023-03-10T00:10:08.904Z,8.22
2023-03-10T00:14:12.493Z,8.32
2023-03-10T00:18:11.738Z,8.40
2023-03-10T00:22:04.706Z,8.50
2023-03-10T00:26:00.939Z,8.64
2023-03-10T00:30:03.841Z,8.78
2023-03-10T00:33:52.924Z,8.88
2023-03-10T00:37:56.550Z,8.94
2023-03-10T00:41:45.183Z,8.94
2023-03-10T00:45:37.790Z,8.87
2023-03-10T00:49:41.512Z,8.85
2023-03-10T00:53:38.005Z,8.83
2023-03-10T00:57:41.662Z,8.79
2023-03-10T01:01:42.185Z,8.71
2023-03-10T01:05:31.518Z,8.59
2023-03-10T01:09:31.711Z,8.47
2023-03-10T01:13:12.945Z,8.36
2023-03-10T01:17:05.568Z,8.30
2023-03-10T01:21:09.479Z,8.23
2023-03-10T01:24:51.373Z,8.17
2023-03-10T01:28:54.961Z,8.17
2023-03-10T01:32:51.702Z,8.19
2023-03-10T01:36:55.323Z,8.24
2023-03-10T01:40:59.139Z,8.30
2023-03-10T01:44:53.761Z,8.32
2023-03-10T01:48:50.376Z,8.29
2023-03-10T01:52:56.848Z,8.25
2023-03-10T01:56:39.340Z,8.20
2023-03-10T02:00:42.964Z,8.14
2023-03-10T02:04:54.636Z,8.08
2023-03-10T02:08:45.738Z,8.01
2023-03-10T02:12:34.982Z,7.93
2023-03-10T02:16:30.373Z,7.83
2023-03-10T02:20:40.402Z,7.73
2023-03-10T02:24:52.796Z,7.67
2023-03-10T02:28:56.436Z,7.56
2023-03-10T02:33:00.119Z,7.45
2023-03-10T02:37:03.765Z,7.35
2023-03-10T02:41:10.618Z,7.23
2023-03-10T02:45:14.194Z,7.11
2023-03-10T02:49:14.266Z,7.03
2023-03-10T02:53:26.219Z,7.00
2023-03-10T02:57:21.215Z,6.96
2023-03-10T03:01:10.402Z,6.93
2023-03-10T03:05:14.057Z,6.89
2023-03-10T03:09:03.004Z,6.87
2023-03-10T03:13:00.642Z,6.88
2023-03-10T03:17:02.850Z,6.89
2023-03-10T03:20:57.448Z,6.87
2023-03-10T03:24:36.461Z,6.85
2023-03-10T03:28:39.033Z,6.84
2023-03-10T03:32:42.699Z,6.82
2023-03-10T03:36:30.731Z,6.85
2023-03-10T03:40:34.402Z,6.89
2023-03-10T03:44:38.017Z,6.92
2023-03-10T03:48:38.317Z,6.93
2023-03-10T03:52:40.961Z,6.95
2023-03-10T03:56:44.613Z,6.98
2023-03-10T04:00:50.463Z,7.04
2023-03-10T04:04:55.381Z,7.06
2023-03-10T04:08:51.671Z,7.10
2023-03-10T04:12:47.067Z,7.14
2023-03-10T04:16:50.734Z,7.17
2023-03-10T04:20:46.818Z,7.16
2023-03-10T04:24:36.079Z,7.16
2023-03-10T04:28:39.816Z,7.16
2023-03-10T04:32:36.470Z,7.17
2023-03-10T04:36:40.116Z,7.19
2023-03-10T04:40:43.078Z,7.22
2023-03-10T04:44:46.703Z,7.23
2023-03-10T04:48:43.110Z,7.26
2023-03-10T04:52:46.771Z,7.31
2023-03-10T04:56:36.325Z,7.38
2023-03-10T05:00:47.307Z,7.41
2023-03-10T05:04:56.738Z,7.43
2023-03-10T05:09:00.313Z,7.47
2023-03-10T05:12:56.718Z,7.50
2023-03-10T05:17:00.339Z,7.52
2023-03-10T05:20:56.581Z,7.53
2023-03-10T05:24:58.766Z,7.55
2023-03-10T05:29:00.870Z,7.57
2023-03-10T05:33:03.279Z,7.58
2023-03-10T05:36:51.484Z,7.61
2023-03-10T05:40:35.686Z,7.65
2023-03-10T05:44:39.266Z,7.75
2023-03-10T05:48:26.942Z,7.97
2023-03-10T05:52:10.168Z,8.25
2023-03-10T05:55:50.718Z,8.51
2023-03-10T05:59:46.102Z,8.78
2023-03-10T06:03:35.001Z,9.05
2023-03-10T06:07:31.338Z,9.34
2023-03-10T06:11:27.686Z,9.76
2023-03-10T06:15:08.991Z,10.18
2023-03-10T06:18:56.530Z,10.52
2023-03-10T06:22:50.616Z,10.85
2023-03-10T06:26:32.108Z,11.18
2023-03-10T06:30:14.998Z,11.36
2023-03-10T06:34:04.542Z,11.44
2023-03-10T06:37:38.590Z,11.45
2023-03-10T06:41:05.135Z,11.41
2023-03-10T06:44:29.002Z,11.40
2023-03-10T06:47:44.588Z,11.41
2023-03-10T06:50:56.655Z,11.39
2023-03-10T06:54:13.521Z,11.46
2023-03-10T06:57:26.097Z,11.57
2023-03-10T07:00:34.847Z,11.68
2023-03-10T07:04:06.450Z,11.81
2023-03-10T07:07:38.953Z,11.89
2023-03-10T07:10:41.928Z,11.86
2023-03-10T07:13:55.527Z,11.84
2023-03-10T07:17:09.382Z,11.87
2023-03-10T07:20:18.287Z,11.99
2023-03-10T07:23:26.911Z,12.09
2023-03-10T07:26:29.847Z,12.15
2023-03-10T07:29:32.830Z,12.18
2023-03-10T07:32:41.505Z,12.27
2023-03-10T07:35:46.054Z,12.36
2023-03-10T07:38:49.666Z,12.48
2023-03-10T07:41:52.941Z,12.61
2023-03-10T07:45:01.639Z,12.65
2023-03-10T07:48:08.035Z,12.70
2023-03-10T07:51:10.995Z,12.73
2023-03-10T07:54:19.114Z,12.81
2023-03-10T07:57:22.092Z,12.85
2023-03-10T08:00:25.234Z,12.89
2023-03-10T08:03:34.148Z,12.94
2023-03-10T08:06:38.112Z,12.93
2023-03-10T08:09:41.462Z,13.08
2023-03-10T08:12:44.478Z,13.24
2023-03-10T08:15:47.960Z,13.43
2023-03-10T08:18:52.307Z,13.70
2023-03-10T08:21:56.610Z,14.04
2023-03-10T08:24:59.763Z,14.34
2023-03-10T08:28:02.666Z,14.51
2023-03-10T08:31:11.922Z,14.64
2023-03-10T08:34:16.514Z,14.68
2023-03-10T08:37:19.574Z,14.75
2023-03-10T08:40:22.575Z,14.77
2023-03-10T08:43:25.499Z,14.84
2023-03-10T08:46:32.002Z,15.00
2023-03-10T08:49:35.668Z,15.31
2023-03-10T08:52:59.286Z,15.54
2023-03-10T08:56:02.696Z,15.61
2023-03-10T08:59:05.838Z,15.62
2023-03-10T09:02:12.128Z,15.55
2023-03-10T09:05:15.468Z,15.51
2023-03-10T09:08:18.674Z,15.37
2023-03-10T09:11:24.811Z,15.21
2023-03-10T09:14:28.106Z,15.05
2023-03-10T09:17:31.005Z,14.92
2023-03-10T09:20:33.883Z,14.80
2023-03-10T09:23:36.980Z,14.73
2023-03-10T09:26:44.668Z,14.70
2023-03-10T09:29:47.987Z,14.81
2023-03-10T09:32:51.232Z,14.86
2023-03-10T09:36:06.448Z,14.94
2023-03-10T09:39:10.280Z,15.05
2023-03-10T09:42:29.146Z,15.25
2023-03-10T09:45:57.015Z,15.55
2023-03-10T09:49:35.532Z,15.83
2023-03-10T09:52:46.910Z,16.09
2023-03-10T09:55:50.265Z,16.27
2023-03-10T09:59:02.274Z,16.42
2023-03-10T10:02:25.879Z,16.52
2023-03-10T10:05:33.647Z,16.48
2023-03-10T10:08:54.893Z,16.42
2023-03-10T10:12:16.889Z,16.37
2023-03-10T10:15:25.806Z,16.29
2023-03-10T10:19:03.850Z,16.24
2023-03-10T10:22:27.020Z,16.22
2023-03-10T10:25:32.704Z,16.24
2023-03-10T10:28:48.722Z,16.34
2023-03-10T10:32:07.108Z,16.41
2023-03-10T10:35:15.580Z,16.40
2023-03-10T10:38:25.866Z,16.48
2023-03-10T10:41:34.139Z,16.57
2023-03-10T10:44:42.779Z,16.68
2023-03-10T10:47:51.241Z,16.73
2023-03-10T10:50:54.371Z,16.77
2023-03-10T10:54:06.776Z,16.79
2023-03-10T10:57:21.836Z,16.75
2023-03-10T11:00:26.671Z,16.74
2023-03-10T11:03:33.088Z,16.78
2023-03-10T11:06:38.210Z,16.73
2023-03-10T11:09:41.229Z,16.74
2023-03-10T11:13:01.706Z,16.74
2023-03-10T11:16:22.257Z,16.76
2023-03-10T11:19:35.328Z,16.83
2023-03-10T11:22:43.837Z,16.80
2023-03-10T11:26:12.753Z,16.78
2023-03-10T11:29:38.651Z,16.87
2023-03-10T11:33:05.606Z,16.87
2023-03-10T11:36:20.617Z,16.99
2023-03-10T11:39:38.102Z,17.09
2023-03-10T11:42:58.269Z,17.12
2023-03-10T11:46:09.060Z,17.15
2023-03-10T11:49:17.096Z,17.22
2023-03-10T11:52:23.544Z,17.38
2023-03-10T11:55:26.812Z,17.51
2023-03-10T11:58:51.073Z,17.64
2023-03-10T12:02:20.328Z,17.69
2023-03-10T12:05:26.007Z,17.62
2023-03-10T12:08:33.614Z,17.58
2023-03-10T12:11:37.136Z,17.49
2023-03-10T12:14:41.026Z,17.37
2023-03-10T12:17:44.093Z,17.29
2023-03-10T12:20:46.963Z,17.25
2023-03-10T12:23:55.497Z,17.19
2023-03-10T12:27:03.783Z,17.10
2023-03-10T12:30:48.697Z,16.94
2023-03-10T12:33:53.097Z,16.87
2023-03-10T12:37:08.403Z,16.82
2023-03-10T12:40:50.372Z,16.69
2023-03-10T12:44:07.138Z,16.56
2023-03-10T12:47:39.378Z,16.56
2023-03-10T12:50:54.667Z,16.64
2023-03-10T12:54:43.043Z,16.73
2023-03-10T12:58:12.065Z,16.76
2023-03-10T13:01:23.744Z,16.75
2023-03-10T13:04:27.847Z,16.73
2023-03-10T13:07:31.436Z,16.74
2023-03-10T13:10:35.779Z,16.75
2023-03-10T13:13:40.087Z,16.77
2023-03-10T13:16:54.612Z,16.80
2023-03-10T13:20:14.423Z,16.97
2023-03-10T13:23:27.987Z,17.09
2023-03-10T13:26:31.139Z,17.09
2023-03-10T13:29:34.685Z,17.08
2023-03-10T13:32:37.564Z,16.96
2023-03-10T13:35:42.112Z,16.74
2023-03-10T13:38:44.993Z,16.61
2023-03-10T13:41:50.534Z,16.49
2023-03-10T13:44:54.775Z,16.30
2023-03-10T13:48:00.727Z,16.18
2023-03-10T13:51:32.488Z,16.08
2023-03-10T13:54:37.705Z,16.00
2023-03-10T13:57:42.415Z,15.99
2023-03-10T14:00:50.654Z,16.02
2023-03-10T14:04:05.928Z,16.12
2023-03-10T14:07:28.578Z,16.19
2023-03-10T14:10:31.848Z,16.21
2023-03-10T14:13:43.127Z,16.13
2023-03-10T14:16:56.345Z,16.06
2023-03-10T14:19:59.359Z,16.05
2023-03-10T14:23:23.214Z,16.10
2023-03-10T14:26:26.151Z,16.06
2023-03-10T14:29:30.831Z,15.95
2023-03-10T14:32:34.070Z,15.80
2023-03-10T14:35:37.551Z,15.66
2023-03-10T14:38:40.798Z,15.56
2023-03-10T14:41:44.044Z,15.48
2023-03-10T14:44:49.398Z,15.35
2023-03-10T14:47:52.839Z,15.21
2023-03-10T14:50:57.047Z,15.13
2023-03-10T14:54:00.115Z,15.09
2023-03-10T14:57:04.316Z,15.11
2023-03-10T15:00:12.744Z,15.11
2023-03-10T15:03:16.358Z,15.12
2023-03-10T15:06:20.472Z,15.14
2023-03-10T15:09:23.464Z,15.17
2023-03-10T15:12:29.875Z,15.18
2023-03-10T15:15:44.022Z,15.17
2023-03-10T15:18:49.241Z,15.06
2023-03-10T15:21:53.035Z,14.94
2023-03-10T15:24:55.957Z,14.78
2023-03-10T15:27:59.025Z,14.57
2023-03-10T15:31:02.038Z,14.31
2023-03-10T15:34:25.441Z,14.03
2023-03-10T15:38:03.878Z,13.76
2023-03-10T15:41:17.182Z,13.52
2023-03-10T15:44:32.103Z,13.35
2023-03-10T15:48:00.305Z,13.21
2023-03-10T15:51:39.771Z,12.97
2023-03-10T15:55:16.748Z,12.68
2023-03-10T15:58:41.023Z,12.47
2023-03-10T16:02:15.975Z,12.28
2023-03-10T16:06:03.831Z,12.08
2023-03-10T16:10:04.912Z,11.90
2023-03-10T16:13:52.835Z,11.72
2023-03-10T16:17:30.130Z,11.55
2023-03-10T16:21:26.504Z,11.41
2023-03-10T16:25:13.478Z,11.22
2023-03-10T16:29:02.632Z,11.04
2023-03-10T16:33:05.150Z,10.88
2023-03-10T16:37:02.613Z,10.72
2023-03-10T16:40:37.064Z,10.57
2023-03-10T16:44:26.540Z,10.43
2023-03-10T16:48:22.066Z,10.27
2023-03-10T16:52:41.942Z,10.10
2023-03-10T16:56:38.488Z,9.92
2023-03-10T17:00:24.283Z,9.74
2023-03-10T17:04:13.653Z,9.56
2023-03-10T17:08:02.502Z,9.40
2023-03-10T17:11:58.010Z,9.28
2023-03-10T17:15:43.759Z,9.16
2023-03-10T17:19:37.433Z,9.13
2023-03-10T17:23:41.503Z,9.13
2023-03-10T17:27:53.976Z,9.13
2023-03-10T17:31:51.660Z,9.13
2023-03-10T17:35:55.100Z,9.11
2023-03-10T17:39:37.395Z,9.07
2023-03-10T17:43:41.036Z,9.07
2023-03-10T17:47:37.317Z,9.12
2023-03-10T17:51:39.139Z,9.16
2023-03-10T17:55:35.525Z,9.15
2023-03-10T17:59:32.915Z,9.10
2023-03-10T18:03:22.304Z,9.06
2023-03-10T18:07:25.903Z,9.02
2023-03-10T18:11:25.788Z,9.00
2023-03-10T18:19:30.014Z,8.95
2023-03-10T18:23:57.820Z,8.91
2023-03-10T18:28:46.831Z,8.86
2023-03-10T18:32:53.450Z,8.82
2023-03-10T18:36:42.948Z,8.78
2023-03-10T18:40:31.298Z,8.76
2023-03-10T18:44:18.477Z,8.72
2023-03-10T18:52:16.881Z,8.63
2023-03-10T19:05:21.452Z,8.93
2023-03-10T19:09:10.552Z,8.99
2023-03-10T19:17:22.882Z,9.02
2023-03-10T19:20:29.247Z,9.02
2023-03-10T19:24:25.834Z,9.01
2023-03-10T19:28:20.055Z,9.01
2023-03-10T19:32:07.961Z,8.99
2023-03-10T19:35:56.265Z,8.98
2023-03-10T19:39:50.490Z,8.95
2023-03-10T19:43:37.591Z,8.94
2023-03-10T19:47:41.242Z,8.94
2023-03-10T19:51:25.447Z,8.92
2023-03-10T19:55:29.772Z,8.90
2023-03-10T19:59:31.354Z,8.90
2023-03-10T20:03:27.208Z,8.91
2023-03-10T20:07:10.182Z,8.93
2023-03-10T20:10:51.978Z,8.93
2023-03-10T20:14:55.658Z,8.93
2023-03-10T20:18:52.459Z,8.92
2023-03-10T20:22:45.315Z,8.95
2023-03-10T20:26:49.010Z,8.95
2023-03-10T20:30:44.890Z,8.90
2023-03-10T20:34:41.365Z,8.86
2023-03-10T20:38:37.877Z,8.77
2023-03-10T20:42:30.677Z,8.68
2023-03-10T20:46:32.912Z,8.63
2023-03-10T20:50:18.460Z,8.65
2023-03-10T20:54:13.570Z,8.68
2023-03-10T20:58:17.284Z,8.73
2023-03-10T21:02:12.417Z,8.76
2023-03-10T21:05:59.475Z,8.75
2023-03-10T21:10:03.148Z,8.72
2023-03-10T21:13:59.731Z,8.72
2023-03-10T21:18:03.447Z,8.74
2023-03-10T21:21:56.380Z,8.73
2023-03-10T21:25:52.549Z,8.69
2023-03-10T21:29:41.701Z,8.64
2023-03-10T21:33:20.928Z,8.60
2023-03-10T21:37:24.637Z,8.59
2023-03-10T21:41:01.208Z,8.56
2023-03-10T21:44:33.528Z,8.53
2023-03-10T21:48:30.223Z,8.49
2023-03-10T21:52:23.552Z,8.44
2023-03-10T21:56:27.306Z,8.42
2023-03-10T22:00:23.735Z,8.42
2023-03-10T22:04:05.580Z,8.50
2023-03-10T22:07:58.533Z,8.65
2023-03-10T22:11:55.270Z,8.83
2023-03-10T22:15:52.984Z,9.00
2023-03-10T22:19:47.032Z,9.12
2023-03-10T22:23:43.188Z,9.13
2023-03-10T22:27:46.882Z,9.05
2023-03-10T22:31:50.978Z,8.95
2023-03-10T22:35:52.067Z,8.86
2023-03-10T22:39:55.893Z,8.79
2023-03-10T22:43:56.262Z,8.72
2023-03-10T22:47:59.969Z,8.69
2023-03-10T22:52:03.633Z,8.68
2023-03-10T22:55:54.265Z,8.70
2023-03-10T22:59:58.014Z,8.71
2023-03-10T23:03:53.344Z,8.71
2023-03-10T23:07:50.749Z,8.72
2023-03-10T23:11:54.473Z,8.71
2023-03-10T23:15:58.182Z,8.69
2023-03-10T23:20:00.734Z,8.69
2023-03-10T23:23:49.448Z,8.69
2023-03-10T23:27:45.881Z,8.71
2023-03-10T23:31:42.333Z,8.76
2023-03-10T23:35:21.404Z,8.84
2023-03-10T23:39:17.691Z,8.89
2023-03-10T23:43:20.278Z,8.92
2023-03-10T23:47:14.306Z,8.94
2023-03-10T23:51:10.315Z,8.96
2023-03-10T23:55:03.206Z,8.96
2023-03-10T23:59:06.833Z,8.97
